createdAt,value
2018-11-05T00:00:58.307Z,19.40
2018-11-05T00:03:26.525Z,18.27
2018-11-05T00:05:54.797Z,19.10
2018-11-05T00:08:23.073Z,19.73
2018-11-05T00:10:51.275Z,17.43
2018-11-05T00:13:19.509Z,19.27
2018-11-05T00:15:47.755Z,18.30
2018-11-05T00:18:15.995Z,25.80
2018-11-05T00:20:44.253Z,21.30
2018-11-05T00:23:12.468Z,20.10
2018-11-05T00:25:40.701Z,21.90
2018-11-05T00:28:08.979Z,19.37
2018-11-05T00:30:37.217Z,19.03
2018-11-05T00:33:05.501Z,18.73
2018-11-05T00:35:33.733Z,17.43
2018-11-05T00:38:01.982Z,19.43
2018-11-05T00:40:30.218Z,18.40
2018-11-05T00:42:58.745Z,18.33
2018-11-05T00:45:27.041Z,29.87
2018-11-05T00:47:55.211Z,29.47
2018-11-05T00:50:23.416Z,21.17
2018-11-05T00:52:51.599Z,19.77
2018-11-05T00:55:19.825Z,18.57
2018-11-05T00:57:48.054Z,17.57
2018-11-05T01:00:17.188Z,21.60
2018-11-05T01:02:45.391Z,23.10
2018-11-05T01:05:15.085Z,19.10
2018-11-05T01:07:44.163Z,20.07
2018-11-05T01:10:13.627Z,19.87
2018-11-05T01:12:42.057Z,20.47
2018-11-05T01:15:12.303Z,20.37
2018-11-05T01:17:40.562Z,19.23
2018-11-05T01:20:10.225Z,19.10
2018-11-05T01:22:38.775Z,18.13
2018-11-05T01:25:07.042Z,18.33
2018-11-05T01:27:35.264Z,20.10
2018-11-05T01:30:03.685Z,18.67
2018-11-05T01:32:31.975Z,18.23
2018-11-05T01:35:00.197Z,20.37
2018-11-05T01:37:28.507Z,18.60
2018-11-05T01:39:56.741Z,20.10
2018-11-05T01:42:24.973Z,17.33
2018-11-05T01:44:53.233Z,18.07
2018-11-05T01:47:21.508Z,17.20
2018-11-05T01:49:49.711Z,17.70
2018-11-05T01:52:17.971Z,18.00
2018-11-05T01:54:46.287Z,17.67
2018-11-05T01:57:14.529Z,18.30
2018-11-05T01:59:42.760Z,19.07
2018-11-05T02:02:11.025Z,18.43
2018-11-05T02:04:39.245Z,17.90
2018-11-05T02:07:07.517Z,19.47
2018-11-05T02:09:35.773Z,19.00
2018-11-05T02:12:04.070Z,21.33
2018-11-05T02:14:32.309Z,20.60
2018-11-05T02:17:00.523Z,20.63
2018-11-05T02:19:28.977Z,20.83
2018-11-05T02:21:57.233Z,20.30
2018-11-05T02:24:25.442Z,21.50
2018-11-05T02:26:53.986Z,20.80
2018-11-05T02:29:22.203Z,20.47
2018-11-05T02:31:50.445Z,20.93
2018-11-05T02:34:18.693Z,20.50
2018-11-05T02:36:46.933Z,20.60
2018-11-05T02:39:15.460Z,20.17
2018-11-05T02:41:43.676Z,20.60
2018-11-05T02:44:11.930Z,21.97
2018-11-05T02:46:40.144Z,19.50
2018-11-05T02:49:08.353Z,19.90
2018-11-05T02:51:36.563Z,20.60
2018-11-05T02:54:05.002Z,21.40
2018-11-05T02:56:33.205Z,21.13
2018-11-05T02:59:01.678Z,21.13
2018-11-05T03:01:29.881Z,22.07
2018-11-05T03:03:58.103Z,20.80
2018-11-05T03:06:26.313Z,21.17
2018-11-05T03:08:54.534Z,20.50
2018-11-05T03:11:22.769Z,21.77
2018-11-05T03:13:51.003Z,21.37
2018-11-05T03:16:19.569Z,22.37
2018-11-05T03:18:47.850Z,20.80
2018-11-05T03:21:16.205Z,20.83
2018-11-05T03:23:44.450Z,20.53
2018-11-05T03:26:12.677Z,20.30
2018-11-05T03:28:40.929Z,24.47
2018-11-05T03:31:09.381Z,19.43
2018-11-05T03:33:37.605Z,19.77
2018-11-05T03:36:06.510Z,19.23
2018-11-05T03:38:35.010Z,18.37
2018-11-05T03:41:03.311Z,17.93
2018-11-05T03:43:31.529Z,19.50
2018-11-05T03:45:59.770Z,17.53
2018-11-05T03:48:27.987Z,16.33
2018-11-05T03:50:56.412Z,17.30
2018-11-05T03:53:24.637Z,15.40
2018-11-05T03:55:52.900Z,16.27
2018-11-05T03:58:21.114Z,17.37
2018-11-05T04:00:49.371Z,17.27
2018-11-05T04:03:17.692Z,16.63
2018-11-05T04:05:45.894Z,15.80
2018-11-05T04:08:14.145Z,16.50
2018-11-05T04:10:42.398Z,14.87
2018-11-05T04:13:10.625Z,14.70
2018-11-05T04:15:39.011Z,17.63
2018-11-05T04:18:07.101Z,14.73
2018-11-05T04:20:35.474Z,14.00
2018-11-05T04:23:03.829Z,14.90
2018-11-05T04:25:32.068Z,15.70
2018-11-05T04:28:00.321Z,14.97
2018-11-05T04:30:28.586Z,14.30
2018-11-05T04:32:56.858Z,13.50
2018-11-05T04:35:25.117Z,15.10
2018-11-05T04:37:53.377Z,14.50
2018-11-05T04:40:21.585Z,14.67
2018-11-05T04:42:49.842Z,13.83
2018-11-05T04:45:18.349Z,13.70
2018-11-05T04:47:47.081Z,14.00
2018-11-05T04:50:15.282Z,13.80
2018-11-05T04:52:44.213Z,13.80
2018-11-05T04:55:12.425Z,12.53
2018-11-05T04:57:40.644Z,13.33
2018-11-05T05:00:11.799Z,12.90
2018-11-05T05:02:41.201Z,12.27
2018-11-05T05:05:10.182Z,12.60
2018-11-05T05:07:38.688Z,12.90
2018-11-05T05:10:07.673Z,13.43
2018-11-05T05:12:36.013Z,13.30
2018-11-05T05:15:04.676Z,12.43
2018-11-05T05:17:32.881Z,12.37
2018-11-05T05:20:01.137Z,12.40
2018-11-05T05:22:29.547Z,12.27
2018-11-05T05:24:57.754Z,11.50
2018-11-05T05:27:26.007Z,11.20
2018-11-05T05:29:54.386Z,11.40
2018-11-05T05:32:22.622Z,10.73
2018-11-05T05:34:51.094Z,10.27
2018-11-05T05:37:19.325Z,12.83
2018-11-05T05:39:47.573Z,12.23
2018-11-05T05:42:15.801Z,11.37
2018-11-05T05:44:44.021Z,11.37
2018-11-05T05:47:12.376Z,10.70
2018-11-05T05:49:40.580Z,10.70
2018-11-05T05:52:09.004Z,11.40
2018-11-05T05:54:37.510Z,11.20
2018-11-05T05:57:05.817Z,12.20
2018-11-05T05:59:34.045Z,12.93
2018-11-05T06:02:02.290Z,12.43
2018-11-05T06:04:30.537Z,10.37
2018-11-05T06:06:58.790Z,11.73
2018-11-05T06:09:27.021Z,14.57
